Time;durP1;ratioP1;P1;durP2;ratioP2;P2;SDS_P1;SDS_P2;PMS_P1;PMS_P2;Temp;Humidity;BMP_temperature;BMP_pressure;BME280_temperature;BME280_humidity;BME280_pressure;Samples;Min_cycle;Max_cycle;Signal;HPM_P1;HPM_P2
2022/04/24 00:02:05;;;;;;;3.85;2.53;;;;;;;;;;10436791;28;20067;-58
2022/04/24 00:07:05;;;;;;;5.15;2.60;;;;;;;;;;10429459;28;20075;-59
2022/04/24 00:12:04;;;;;;;4.05;2.42;;;;;;;;;;10436165;28;20071;-58
2022/04/24 00:17:02;;;;;;;3.58;2.22;;;;;;;;;;10436423;28;20081;-58
2022/04/24 00:22:02;;;;;;;5.47;2.70;;;;;;;;;;10441104;27;20474;-58
2022/04/24 00:27:01;;;;;;;2.25;2.05;;;;;;;;;;10445728;27;20042;-58
2022/04/24 00:31:59;;;;;;;3.17;2.30;;;;;;;;;;10427490;27;20083;-58
2022/04/24 00:36:58;;;;;;;5.65;2.22;;;;;;;;;;10444087;27;20496;-58
2022/04/24 00:41:57;;;;;;;4.35;2.47;;;;;;;;;;10443924;27;20065;-58
2022/04/24 00:46:57;;;;;;;2.83;2.20;;;;;;;;;;10443485;27;20078;-58
2022/04/24 00:51:55;;;;;;;3.25;2.35;;;;;;;;;;10443484;27;20071;-58
2022/04/24 00:56:54;;;;;;;8.13;2.60;;;;;;;;;;10443286;27;20073;-58
2022/04/24 01:01:53;;;;;;;4.13;2.30;;;;;;;;;;10442819;27;20499;-58
2022/04/24 01:06:52;;;;;;;4.25;2.25;;;;;;;;;;10442893;27;20047;-59
2022/04/24 01:11:51;;;;;;;3.08;2.50;;;;;;;;;;10442789;27;20150;-58
2022/04/24 01:16:50;;;;;;;5.03;2.40;;;;;;;;;;10442591;27;20064;-59
2022/04/24 01:21:50;;;;;;;5.43;2.25;;;;;;;;;;10441393;27;20491;-59
2022/04/24 01:26:48;;;;;;;5.30;2.40;;;;;;;;;;10442696;27;20074;-59
2022/04/24 01:31:48;;;;;;;2.97;2.50;;;;;;;;;;10440711;27;20071;-58
2022/04/24 01:36:47;;;;;;;5.53;2.40;;;;;;;;;;10441538;27;20050;-58
2022/04/24 01:41:47;;;;;;;5.00;2.55;;;;;;;;;;10441007;27;20062;-59
2022/04/24 01:46:45;;;;;;;2.60;2.40;;;;;;;;;;10441294;27;20074;-58
2022/04/24 01:51:44;;;;;;;2.88;2.63;;;;;;;;;;10441149;27;20078;-58
2022/04/24 01:56:43;;;;;;;2.83;2.40;;;;;;;;;;10436763;27;20499;-58
2022/04/24 02:01:42;;;;;;;4.15;2.00;;;;;;;;;;10435736;27;20468;-58
2022/04/24 02:06:41;;;;;;;4.45;2.03;;;;;;;;;;10436490;27;20075;-58
2022/04/24 02:11:39;;;;;;;3.55;2.55;;;;;;;;;;10440650;27;20067;-58
2022/04/24 02:16:38;;;;;;;7.75;6.03;;;;;;;;;;10433483;27;20070;-58
2022/04/24 02:21:37;;;;;;;3.97;2.38;;;;;;;;;;10438719;27;20075;-58
2022/04/24 02:26:35;;;;;;;3.40;2.35;;;;;;;;;;10439512;27;20047;-58
2022/04/24 02:31:34;;;;;;;2.90;2.20;;;;;;;;;;10439972;27;20067;-58
2022/04/24 02:36:32;;;;;;;4.68;2.80;;;;;;;;;;10439299;27;20090;-59
2022/04/24 02:41:32;;;;;;;4.38;3.85;;;;;;;;;;10439717;27;20082;-58
2022/04/24 02:46:30;;;;;;;4.07;2.63;;;;;;;;;;10437996;27;20062;-59
2022/04/24 02:51:28;;;;;;;2.95;2.53;;;;;;;;;;10438725;27;20071;-58
2022/04/24 02:56:27;;;;;;;3.42;2.30;;;;;;;;;;10438609;27;20070;-58
2022/04/24 03:01:26;;;;;;;3.35;2.65;;;;;;;;;;10436136;27;20542;-58
2022/04/24 03:06:25;;;;;;;3.00;2.17;;;;;;;;;;10435435;27;20433;-58
2022/04/24 03:11:23;;;;;;;4.15;2.50;;;;;;;;;;10435344;27;20513;-58
2022/04/24 03:16:22;;;;;;;3.10;2.80;;;;;;;;;;10434382;27;20078;-58
2022/04/24 03:21:21;;;;;;;3.63;2.45;;;;;;;;;;10439103;27;20081;-59
2022/04/24 03:26:20;;;;;;;2.53;2.30;;;;;;;;;;10436951;27;20046;-59
2022/04/24 03:31:18;;;;;;;6.82;2.20;;;;;;;;;;10425033;27;20496;-59
2022/04/24 03:36:16;;;;;;;3.83;2.45;;;;;;;;;;10437481;27;20082;-58
2022/04/24 03:41:16;;;;;;;2.90;2.60;;;;;;;;;;10435280;27;20071;-58
2022/04/24 03:46:15;;;;;;;3.72;2.50;;;;;;;;;;10428998;28;20062;-59
2022/04/24 03:51:13;;;;;;;3.92;2.80;;;;;;;;;;10438375;28;20051;-58
2022/04/24 03:56:11;;;;;;;3.10;2.55;;;;;;;;;;10436279;27;20183;-58
2022/04/24 04:01:12;;;;;;;5.20;3.17;;;;;;;;;;10445299;27;20075;-59
2022/04/24 04:06:10;;;;;;;3.35;2.60;;;;;;;;;;10446311;27;20051;-58
2022/04/24 04:11:09;;;;;;;3.85;2.80;;;;;;;;;;10438173;27;20062;-58
2022/04/24 04:16:07;;;;;;;5.88;2.55;;;;;;;;;;10423909;27;20073;-58
2022/04/24 04:21:07;;;;;;;5.28;2.45;;;;;;;;;;10447333;27;20345;-58
2022/04/24 04:26:06;;;;;;;2.75;2.28;;;;;;;;;;10446705;27;20043;-59
2022/04/24 04:31:04;;;;;;;3.10;2.42;;;;;;;;;;10444211;27;20039;-59
2022/04/24 04:36:02;;;;;;;6.00;3.00;;;;;;;;;;10446140;27;20507;-59
2022/04/24 04:41:02;;;;;;;8.32;3.10;;;;;;;;;;10446197;27;20043;-59
2022/04/24 04:46:00;;;;;;;6.28;3.28;;;;;;;;;;10444430;27;20152;-59
2022/04/24 04:50:58;;;;;;;3.75;3.05;;;;;;;;;;10444175;27;20070;-59
2022/04/24 04:55:57;;;;;;;5.45;2.78;;;;;;;;;;10443126;27;20494;-58
2022/04/24 05:00:56;;;;;;;3.58;2.90;;;;;;;;;;10444255;27;20063;-58
2022/04/24 05:05:55;;;;;;;6.05;2.83;;;;;;;;;;10443742;27;20063;-58
2022/04/24 05:10:53;;;;;;;3.35;3.03;;;;;;;;;;10443831;27;20511;-58
2022/04/24 05:15:51;;;;;;;3.67;2.95;;;;;;;;;;10424332;27;20086;-58
2022/04/24 05:20:51;;;;;;;3.95;2.80;;;;;;;;;;10434211;27;20094;-58
2022/04/24 05:25:50;;;;;;;5.80;2.92;;;;;;;;;;10428654;27;20428;-61
2022/04/24 05:30:48;;;;;;;6.80;3.40;;;;;;;;;;10438437;27;20526;-59
2022/04/24 05:35:46;;;;;;;3.30;2.40;;;;;;;;;;10439803;27;20151;-58
2022/04/24 05:40:46;;;;;;;4.05;3.22;;;;;;;;;;10418444;27;20066;-58
2022/04/24 05:45:45;;;;;;;4.65;2.65;;;;;;;;;;10408709;27;20090;-58
2022/04/24 05:50:43;;;;;;;6.10;2.90;;;;;;;;;;10424533;27;20074;-59
2022/04/24 05:55:42;;;;;;;3.63;2.78;;;;;;;;;;10423356;27;20098;-58
2022/04/24 06:00:41;;;;;;;4.97;3.35;;;;;;;;;;10415717;27;20488;-60
2022/04/24 06:05:40;;;;;;;5.90;4.07;;;;;;;;;;10438567;27;20071;-59
2022/04/24 06:10:38;;;;;;;7.18;3.78;;;;;;;;;;10440164;27;20081;-59
2022/04/24 06:15:39;;;;;;;4.72;3.05;;;;;;;;;;10431013;27;20390;-60
2022/04/24 06:20:38;;;;;;;3.85;2.90;;;;;;;;;;10431543;27;20075;-60
2022/04/24 06:25:38;;;;;;;8.98;3.75;;;;;;;;;;10433875;27;20097;-60
2022/04/24 06:30:40;;;;;;;9.63;3.70;;;;;;;;;;10435860;27;20071;-60
2022/04/24 06:35:40;;;;;;;4.50;3.00;;;;;;;;;;10439847;27;20491;-60
2022/04/24 06:40:39;;;;;;;2.97;2.67;;;;;;;;;;10440401;27;20047;-59
2022/04/24 06:45:38;;;;;;;2.83;2.63;;;;;;;;;;10437224;27;20117;-60
2022/04/24 06:50:37;;;;;;;4.07;2.95;;;;;;;;;;10439126;27;20093;-60
2022/04/24 06:55:37;;;;;;;5.60;4.35;;;;;;;;;;10438733;27;20087;-60
2022/04/24 07:00:37;;;;;;;4.80;3.45;;;;;;;;;;10437816;27;20538;-60
2022/04/24 07:05:56;;;;;;;8.38;3.78;;;;;;;;;;10439440;27;20059;-60
2022/04/24 07:10:56;;;;;;;5.22;3.28;;;;;;;;;;10438071;27;20044;-59
2022/04/24 07:15:54;;;;;;;6.97;4.68;;;;;;;;;;10438709;27;20144;-60
2022/04/24 07:20:55;;;;;;;8.25;5.38;;;;;;;;;;10437826;27;20138;-58
2022/04/24 07:25:58;;;;;;;3.90;2.63;;;;;;;;;;10437813;27;20082;-58
2022/04/24 07:30:57;;;;;;;3.22;2.92;;;;;;;;;;10436879;27;20067;-58
2022/04/24 07:35:55;;;;;;;4.93;2.80;;;;;;;;;;10438276;27;20071;-59
2022/04/24 07:40:53;;;;;;;5.70;3.75;;;;;;;;;;10437870;27;20503;-59
2022/04/24 07:45:53;;;;;;;4.03;3.28;;;;;;;;;;10437381;27;20087;-60
2022/04/24 07:50:52;;;;;;;7.03;3.00;;;;;;;;;;10437599;28;20482;-59
2022/04/24 07:55:50;;;;;;;4.05;3.65;;;;;;;;;;10437285;28;20071;-61
2022/04/24 08:00:49;;;;;;;7.95;3.67;;;;;;;;;;10437566;28;20078;-61
2022/04/24 08:05:49;;;;;;;8.70;5.65;;;;;;;;;;10436213;28;20063;-61
2022/04/24 08:10:48;;;;;;;4.20;3.30;;;;;;;;;;10437258;28;20039;-61
2022/04/24 08:15:47;;;;;;;4.13;3.25;;;;;;;;;;10436885;28;20495;-61
2022/04/24 08:20:46;;;;;;;12.63;5.50;;;;;;;;;;10437690;28;20070;-61
2022/04/24 08:25:46;;;;;;;4.85;3.72;;;;;;;;;;10436648;28;20074;-59
2022/04/24 08:30:45;;;;;;;5.72;3.08;;;;;;;;;;10437216;28;20495;-60
2022/04/24 08:35:45;;;;;;;5.25;3.25;;;;;;;;;;10437010;28;20082;-59
2022/04/24 08:40:44;;;;;;;7.07;3.28;;;;;;;;;;10437592;27;20063;-59
2022/04/24 08:45:43;;;;;;;3.90;3.33;;;;;;;;;;10443879;27;20081;-60
2022/04/24 08:50:42;;;;;;;7.00;4.68;;;;;;;;;;10444444;27;20070;-59
2022/04/24 08:55:40;;;;;;;5.32;2.80;;;;;;;;;;10444271;27;20062;-61
2022/04/24 09:00:41;;;;;;;15.60;12.50;;;;;;;;;;10439118;27;20082;-58
2022/04/24 09:05:41;;;;;;;5.28;3.47;;;;;;;;;;10443088;27;20081;-59
2022/04/24 09:10:49;;;;;;;11.95;10.55;;;;;;;;;;10438227;27;20078;-59
2022/04/24 09:15:53;;;;;;;3.03;2.75;;;;;;;;;;10442208;27;20086;-59
2022/04/24 09:20:56;;;;;;;6.93;4.90;;;;;;;;;;10442848;27;20503;-60
2022/04/24 09:25:54;;;;;;;4.18;3.17;;;;;;;;;;10442265;27;20081;-60
2022/04/24 09:30:52;;;;;;;6.22;2.83;;;;;;;;;;10443447;27;20069;-59
2022/04/24 09:35:55;;;;;;;5.63;3.70;;;;;;;;;;10442676;27;20081;-60
2022/04/24 09:40:55;;;;;;;3.28;2.60;;;;;;;;;;10441940;27;20078;-59
2022/04/24 09:45:54;;;;;;;6.82;3.17;;;;;;;;;;10441119;27;20085;-60
2022/04/24 09:50:54;;;;;;;8.20;5.10;;;;;;;;;;10442417;27;20035;-60
2022/04/24 09:55:52;;;;;;;2.33;2.13;;;;;;;;;;10440994;27;20101;-61
2022/04/24 10:00:52;;;;;;;2.65;2.17;;;;;;;;;;10442156;27;20077;-59
2022/04/24 10:05:50;;;;;;;3.83;2.38;;;;;;;;;;10423371;27;20079;-60
2022/04/24 10:10:50;;;;;;;3.97;2.72;;;;;;;;;;10428305;27;20090;-59
2022/04/24 10:15:50;;;;;;;5.75;2.20;;;;;;;;;;10433055;27;20086;-59
2022/04/24 10:20:58;;;;;;;6.15;3.65;;;;;;;;;;10440800;27;20079;-59
2022/04/24 10:25:56;;;;;;;2.78;2.22;;;;;;;;;;10439250;27;20067;-59
2022/04/24 10:30:58;;;;;;;4.55;3.20;;;;;;;;;;10435253;27;20078;-59
2022/04/24 10:35:59;;;;;;;4.13;2.67;;;;;;;;;;10436195;27;20079;-59
2022/04/24 10:40:59;;;;;;;5.80;4.00;;;;;;;;;;10437248;27;20479;-60
2022/04/24 10:45:57;;;;;;;4.18;3.45;;;;;;;;;;10439190;27;20124;-60
2022/04/24 10:50:55;;;;;;;8.23;3.05;;;;;;;;;;10438795;27;20062;-59
2022/04/24 10:56:05;;;;;;;5.07;4.20;;;;;;;;;;10437819;27;20078;-60
2022/04/24 11:01:09;;;;;;;3.60;2.50;;;;;;;;;;10420642;27;20043;-59
2022/04/24 11:06:17;;;;;;;5.95;2.75;;;;;;;;;;10437631;27;20081;-59
2022/04/24 11:11:17;;;;;;;4.90;3.10;;;;;;;;;;10438753;27;20075;-57
2022/04/24 11:16:16;;;;;;;4.00;2.58;;;;;;;;;;10438496;27;20094;-59
2022/04/24 11:21:19;;;;;;;3.42;2.60;;;;;;;;;;10439130;27;20039;-58
2022/04/24 11:26:18;;;;;;;3.33;2.58;;;;;;;;;;10437275;27;20039;-59
2022/04/24 11:31:18;;;;;;;5.00;2.60;;;;;;;;;;10437271;27;20038;-60
2022/04/24 11:36:16;;;;;;;2.75;1.73;;;;;;;;;;10438264;27;20329;-61
2022/04/24 11:41:15;;;;;;;8.13;2.15;;;;;;;;;;10437719;27;20035;-60
2022/04/24 11:51:32;;;;;;;8.55;3.72;;;;;;;;;;10436965;28;20043;-60
2022/04/24 11:56:37;;;;;;;5.72;2.97;;;;;;;;;;10430154;28;20062;-61
2022/04/24 12:01:37;;;;;;;5.00;2.60;;;;;;;;;;10437486;28;20035;-60
2022/04/24 12:06:36;;;;;;;5.95;3.63;;;;;;;;;;10437775;28;20054;-61
2022/04/24 12:11:35;;;;;;;6.00;2.67;;;;;;;;;;10436902;28;20043;-61
2022/04/24 12:16:33;;;;;;;7.78;3.35;;;;;;;;;;10437996;27;20086;-60
2022/04/24 12:21:45;;;;;;;4.93;2.95;;;;;;;;;;10445806;27;20066;-60
2022/04/24 12:26:47;;;;;;;6.18;3.40;;;;;;;;;;10445653;27;20499;-60
2022/04/24 12:31:46;;;;;;;3.70;2.03;;;;;;;;;;10445788;27;20067;-61
2022/04/24 12:36:50;;;;;;;6.40;3.83;;;;;;;;;;10444252;27;20063;-61
2022/04/24 12:41:48;;;;;;;7.85;3.50;;;;;;;;;;10440858;27;20474;-61
2022/04/24 12:46:46;;;;;;;4.85;3.28;;;;;;;;;;10442767;27;20082;-60
2022/04/24 12:51:45;;;;;;;6.22;3.33;;;;;;;;;;10438650;27;20515;-60
2022/04/24 12:56:45;;;;;;;4.00;3.22;;;;;;;;;;10442137;27;20472;-60
2022/04/24 13:01:44;;;;;;;5.05;2.60;;;;;;;;;;10439212;27;20070;-60
2022/04/24 13:06:49;;;;;;;4.43;2.67;;;;;;;;;;10429611;27;20199;-61
2022/04/24 13:12:00;;;;;;;5.30;2.95;;;;;;;;;;10442655;27;20047;-61
2022/04/24 13:22:14;;;;;;;5.18;2.63;;;;;;;;;;10433690;27;20035;-61
2022/04/24 13:27:14;;;;;;;4.97;2.65;;;;;;;;;;10441843;27;20046;-60
2022/04/24 13:32:12;;;;;;;9.15;3.75;;;;;;;;;;10441096;27;20554;-60
2022/04/24 13:42:27;;;;;;;5.05;3.45;;;;;;;;;;10435290;27;20082;-61
2022/04/24 13:47:25;;;;;;;4.75;3.03;;;;;;;;;;10442337;27;20098;-60
2022/04/24 13:52:23;;;;;;;6.72;2.67;;;;;;;;;;10442409;27;20140;-60
2022/04/24 13:57:22;;;;;;;4.18;3.33;;;;;;;;;;10440976;27;20074;-60
2022/04/24 14:02:22;;;;;;;5.13;2.63;;;;;;;;;;10440768;27;20066;-61
2022/04/24 14:07:21;;;;;;;9.15;3.10;;;;;;;;;;10440528;27;20047;-60
2022/04/24 14:12:20;;;;;;;5.82;2.45;;;;;;;;;;10440913;27;20538;-60
2022/04/24 14:17:18;;;;;;;5.93;3.97;;;;;;;;;;10433917;27;20094;-61
2022/04/24 14:22:17;;;;;;;13.02;7.30;;;;;;;;;;10441648;27;20491;-60
2022/04/24 14:27:18;;;;;;;4.47;2.97;;;;;;;;;;10439889;27;20043;-61
2022/04/24 14:32:16;;;;;;;8.50;3.28;;;;;;;;;;10439178;27;20074;-60
2022/04/24 14:37:15;;;;;;;7.05;4.88;;;;;;;;;;10430853;27;20143;-61
2022/04/24 14:42:14;;;;;;;6.80;4.32;;;;;;;;;;10439693;27;20407;-61
2022/04/24 14:57:45;;;;;;;4.18;2.83;;;;;;;;;;10438547;27;20079;-61
2022/04/24 15:02:45;;;;;;;4.88;4.28;;;;;;;;;;10438890;27;20070;-61
2022/04/24 15:07:43;;;;;;;5.72;3.67;;;;;;;;;;10438235;27;20051;-61
2022/04/24 15:12:43;;;;;;;4.57;3.10;;;;;;;;;;10438469;27;20074;-58
2022/04/24 15:17:43;;;;;;;6.00;2.92;;;;;;;;;;10438223;27;20074;-59
2022/04/24 15:22:41;;;;;;;7.85;4.43;;;;;;;;;;10437737;27;20085;-59
2022/04/24 15:27:40;;;;;;;4.07;2.45;;;;;;;;;;10437503;27;20078;-59
2022/04/24 15:32:40;;;;;;;7.22;2.47;;;;;;;;;;10436945;27;20073;-59
2022/04/24 15:37:40;;;;;;;9.93;5.65;;;;;;;;;;10437588;27;20070;-59
2022/04/24 15:42:38;;;;;;;5.90;2.85;;;;;;;;;;10437195;27;20362;-59
2022/04/24 15:47:37;;;;;;;9.30;3.17;;;;;;;;;;10437013;27;20089;-59
2022/04/24 15:52:35;;;;;;;6.07;2.88;;;;;;;;;;10446024;27;20059;-59
2022/04/24 15:57:35;;;;;;;8.35;2.95;;;;;;;;;;10450232;27;20074;-60
2022/04/24 16:02:33;;;;;;;6.18;3.78;;;;;;;;;;10450674;27;20081;-60
2022/04/24 16:07:31;;;;;;;7.63;3.00;;;;;;;;;;10450601;27;20043;-60
2022/04/24 16:12:30;;;;;;;8.85;3.55;;;;;;;;;;10450887;27;20035;-60
2022/04/24 16:17:30;;;;;;;6.82;4.60;;;;;;;;;;10451848;27;20086;-61
2022/04/24 16:22:28;;;;;;;5.68;3.50;;;;;;;;;;10451763;27;20070;-59
2022/04/24 16:27:26;;;;;;;7.47;4.05;;;;;;;;;;10449996;27;20074;-59
2022/04/24 16:32:25;;;;;;;8.95;3.22;;;;;;;;;;10450213;27;20071;-59
2022/04/24 16:37:24;;;;;;;9.43;3.53;;;;;;;;;;10450007;27;20507;-59
2022/04/24 16:42:23;;;;;;;9.32;5.43;;;;;;;;;;10448842;27;20465;-59
2022/04/24 16:47:21;;;;;;;12.07;6.13;;;;;;;;;;10444594;27;20070;-59
2022/04/24 17:02:53;;;;;;;10.40;4.68;;;;;;;;;;10446481;27;20063;-61
2022/04/24 17:07:52;;;;;;;6.72;3.70;;;;;;;;;;10443155;27;20412;-61
2022/04/24 17:12:53;;;;;;;10.73;6.63;;;;;;;;;;10442909;27;20078;-60
2022/04/24 17:17:52;;;;;;;9.05;5.07;;;;;;;;;;10442947;27;20078;-60
2022/04/24 17:22:50;;;;;;;6.38;4.38;;;;;;;;;;10442932;27;20074;-60
2022/04/24 17:27:49;;;;;;;5.63;3.58;;;;;;;;;;10427391;27;20548;-61
2022/04/24 17:32:49;;;;;;;6.18;3.53;;;;;;;;;;10442833;27;20043;-60
2022/04/24 17:37:48;;;;;;;12.32;3.42;;;;;;;;;;10442031;27;20098;-59
2022/04/24 17:42:48;;;;;;;7.43;4.88;;;;;;;;;;10441744;27;20047;-60
2022/04/24 17:47:49;;;;;;;6.80;4.78;;;;;;;;;;10438226;27;20569;-60
2022/04/24 17:52:51;;;;;;;5.03;4.03;;;;;;;;;;10442817;27;20062;-61
2022/04/24 17:57:49;;;;;;;23.67;14.40;;;;;;;;;;10442432;27;20082;-61
2022/04/24 18:02:48;;;;;;;6.07;2.90;;;;;;;;;;10422538;27;20541;-65
2022/04/24 18:07:47;;;;;;;6.50;3.13;;;;;;;;;;10419441;27;20467;-65
2022/04/24 18:12:47;;;;;;;5.63;2.95;;;;;;;;;;10416170;27;20175;-63
2022/04/24 18:17:46;;;;;;;6.15;3.00;;;;;;;;;;10421496;27;20066;-64
2022/04/24 18:22:48;;;;;;;5.63;2.83;;;;;;;;;;10431532;27;20063;-65
2022/04/24 18:27:48;;;;;;;6.28;2.65;;;;;;;;;;10429667;27;20389;-64
2022/04/24 18:32:48;;;;;;;3.55;2.35;;;;;;;;;;10427264;27;20069;-64
2022/04/24 18:37:46;;;;;;;5.28;3.40;;;;;;;;;;10419349;27;20511;-64
2022/04/24 18:42:46;;;;;;;7.50;3.35;;;;;;;;;;10423354;27;20078;-64
2022/04/24 18:47:46;;;;;;;6.90;3.53;;;;;;;;;;10426274;27;20078;-64
2022/04/24 18:52:44;;;;;;;16.48;3.95;;;;;;;;;;10422750;27;20071;-64
2022/04/24 18:57:43;;;;;;;5.97;3.05;;;;;;;;;;10423120;27;20063;-65
2022/04/24 19:02:42;;;;;;;7.15;3.03;;;;;;;;;;10420575;27;20063;-65
2022/04/24 19:07:42;;;;;;;5.97;2.70;;;;;;;;;;10427911;27;20058;-64
2022/04/24 19:12:40;;;;;;;8.23;3.15;;;;;;;;;;10429655;27;20067;-66
2022/04/24 19:17:38;;;;;;;6.88;2.70;;;;;;;;;;10430922;27;20066;-63
2022/04/24 19:22:36;;;;;;;4.65;3.08;;;;;;;;;;10419847;27;20070;-63
2022/04/24 19:27:37;;;;;;;5.25;3.00;;;;;;;;;;10417127;27;20075;-64
2022/04/24 19:32:36;;;;;;;7.10;3.30;;;;;;;;;;10425294;27;20101;-66
2022/04/24 19:37:35;;;;;;;11.45;3.40;;;;;;;;;;10417035;27;20707;-64
2022/04/24 19:42:35;;;;;;;5.47;3.03;;;;;;;;;;10417408;27;20079;-64
2022/04/24 19:49:18;;;;;;;9.80;3.42;;;;;;;;;;10422339;27;20066;-64
2022/04/24 19:52:56;;;;;;;6.55;2.95;;;;;;;;;;10418228;28;20075;-64
2022/04/24 19:57:54;;;;;;;8.95;3.25;;;;;;;;;;10417943;28;20420;-64
2022/04/24 20:02:55;;;;;;;4.03;3.38;;;;;;;;;;10418439;28;20060;-63
2022/04/24 20:07:54;;;;;;;7.03;2.88;;;;;;;;;;10416443;28;20078;-63
2022/04/24 20:12:54;;;;;;;3.70;2.33;;;;;;;;;;10416139;28;20075;-64
2022/04/24 20:18:10;;;;;;;6.77;2.77;;;;;;;;;;10432384;28;20496;-64
2022/04/24 20:23:08;;;;;;;4.03;2.30;;;;;;;;;;10435142;28;20320;-64
2022/04/24 20:28:06;;;;;;;4.50;2.47;;;;;;;;;;10436212;28;20050;-64
2022/04/24 20:33:05;;;;;;;3.88;2.53;;;;;;;;;;10411124;28;20097;-65
2022/04/24 20:38:05;;;;;;;3.58;2.53;;;;;;;;;;10428690;27;20063;-65
2022/04/24 20:43:04;;;;;;;6.43;2.95;;;;;;;;;;10433794;27;20067;-65
2022/04/24 20:48:03;;;;;;;3.45;2.28;;;;;;;;;;10435297;27;20063;-64
2022/04/24 20:53:01;;;;;;;4.28;2.17;;;;;;;;;;10422662;27;20044;-65
2022/04/24 20:58:01;;;;;;;5.47;1.63;;;;;;;;;;10422236;27;20136;-65
2022/04/24 21:02:59;;;;;;;6.43;2.28;;;;;;;;;;10429044;27;20168;-64
2022/04/24 21:07:57;;;;;;;5.03;2.25;;;;;;;;;;10425892;27;20070;-65
2022/04/24 21:12:56;;;;;;;8.02;2.28;;;;;;;;;;10442360;27;20043;-65
2022/04/24 21:17:55;;;;;;;2.78;1.90;;;;;;;;;;10443081;27;20481;-65
2022/04/24 21:23:01;;;;;;;4.13;2.10;;;;;;;;;;10442929;27;20492;-65
2022/04/24 21:28:00;;;;;;;6.65;3.40;;;;;;;;;;10440764;27;20043;-65
2022/04/24 21:33:01;;;;;;;5.15;1.95;;;;;;;;;;10442779;27;20522;-65
2022/04/24 21:38:02;;;;;;;3.17;1.73;;;;;;;;;;10442728;27;20068;-65
2022/04/24 21:43:00;;;;;;;4.60;1.98;;;;;;;;;;10437766;27;20094;-65
2022/04/24 21:47:59;;;;;;;4.10;3.00;;;;;;;;;;10424663;27;20506;-65
2022/04/24 21:52:59;;;;;;;4.53;2.42;;;;;;;;;;10425849;27;20415;-65
2022/04/24 21:57:58;;;;;;;10.35;2.85;;;;;;;;;;10442320;27;20646;-65
2022/04/24 22:08:14;;;;;;;2.70;2.00;;;;;;;;;;10440767;27;20504;-65
2022/04/24 22:13:13;;;;;;;6.03;2.03;;;;;;;;;;10438609;27;20071;-65
2022/04/24 22:18:11;;;;;;;7.85;2.25;;;;;;;;;;10417145;27;20073;-65
2022/04/24 22:28:27;;;;;;;4.85;1.88;;;;;;;;;;10417152;27;20050;-65
2022/04/24 22:33:26;;;;;;;9.35;2.17;;;;;;;;;;10439824;27;20117;-65
2022/04/24 22:38:24;;;;;;;2.97;1.50;;;;;;;;;;10439805;27;20066;-65
2022/04/24 22:43:22;;;;;;;3.45;1.60;;;;;;;;;;10439677;27;20090;-63
2022/04/24 22:48:21;;;;;;;5.60;1.98;;;;;;;;;;10426685;27;20039;-65
2022/04/24 22:53:20;;;;;;;3.67;1.70;;;;;;;;;;10423637;27;20071;-65
2022/04/24 22:58:18;;;;;;;6.43;2.55;;;;;;;;;;10425417;27;20039;-64
2022/04/24 23:03:16;;;;;;;3.05;2.20;;;;;;;;;;10436674;27;20071;-65
2022/04/24 23:08:16;;;;;;;5.35;1.65;;;;;;;;;;10430872;27;20047;-65
2022/04/24 23:13:15;;;;;;;2.03;1.70;;;;;;;;;;10434040;27;20066;-65
2022/04/24 23:23:31;;;;;;;4.60;1.95;;;;;;;;;;10414077;27;20075;-65
2022/04/24 23:28:29;;;;;;;7.97;2.03;;;;;;;;;;10397048;27;20423;-65
2022/04/24 23:33:27;;;;;;;3.30;2.13;;;;;;;;;;10437857;27;20039;-64
2022/04/24 23:38:25;;;;;;;9.68;2.00;;;;;;;;;;10428774;27;20039;-64
2022/04/24 23:43:25;;;;;;;3.95;1.98;;;;;;;;;;10396917;28;20094;-65
2022/04/24 23:48:23;;;;;;;3.17;2.17;;;;;;;;;;10403309;27;20464;-65
2022/04/24 23:53:22;;;;;;;5.65;1.75;;;;;;;;;;10421988;28;20070;-65
2022/04/24 23:58:20;;;;;;;7.55;2.38;;;;;;;;;;10414463;28;20499;-65
